sensor_id;sensor_type;location;lat;lon;timestamp;temperature;humidity
16417;DHT22;8317;52.186;5.688;2022-07-05T00:00:55;14.30;99.90
16417;DHT22;8317;52.186;5.688;2022-07-05T00:03:21;14.30;99.90
16417;DHT22;8317;52.186;5.688;2022-07-05T00:05:48;14.20;99.90
16417;DHT22;8317;52.186;5.688;2022-07-05T00:08:17;14.30;99.90
16417;DHT22;8317;52.186;5.688;2022-07-05T00:10:44;14.20;99.90
16417;DHT22;8317;52.186;5.688;2022-07-05T00:13:12;14.10;99.90
16417;DHT22;8317;52.186;5.688;2022-07-05T00:15:39;14.40;99.90
16417;DHT22;8317;52.186;5.688;2022-07-05T00:18:06;14.10;99.90
16417;DHT22;8317;52.186;5.688;2022-07-05T00:20:33;14.10;99.90
16417;DHT22;8317;52.186;5.688;2022-07-05T00:23:00;14.00;99.90
16417;DHT22;8317;52.186;5.688;2022-07-05T00:25:28;14.00;99.90
16417;DHT22;8317;52.186;5.688;2022-07-05T00:27:55;14.00;99.90
16417;DHT22;8317;52.186;5.688;2022-07-05T00:30:22;14.00;99.90
16417;DHT22;8317;52.186;5.688;2022-07-05T00:32:49;14.00;99.90
16417;DHT22;8317;52.186;5.688;2022-07-05T00:35:16;13.80;99.90
16417;DHT22;8317;52.186;5.688;2022-07-05T00:37:43;13.70;99.90
16417;DHT22;8317;52.186;5.688;2022-07-05T00:40:10;13.70;99.90
16417;DHT22;8317;52.186;5.688;2022-07-05T00:42:38;13.70;99.90
16417;DHT22;8317;52.186;5.688;2022-07-05T00:45:06;13.70;99.90
16417;DHT22;8317;52.186;5.688;2022-07-05T00:47:33;13.60;99.90
16417;DHT22;8317;52.186;5.688;2022-07-05T00:50:00;13.70;99.90
16417;DHT22;8317;52.186;5.688;2022-07-05T00:52:27;13.70;99.90
16417;DHT22;8317;52.186;5.688;2022-07-05T00:54:54;13.50;99.90
16417;DHT22;8317;52.186;5.688;2022-07-05T00:57:21;13.40;99.90
16417;DHT22;8317;52.186;5.688;2022-07-05T00:59:50;13.40;99.90
16417;DHT22;8317;52.186;5.688;2022-07-05T01:02:17;13.30;99.90
16417;DHT22;8317;52.186;5.688;2022-07-05T01:04:51;13.50;99.90
16417;DHT22;8317;52.186;5.688;2022-07-05T01:07:19;13.60;99.90
16417;DHT22;8317;52.186;5.688;2022-07-05T01:09:47;13.40;99.90
16417;DHT22;8317;52.186;5.688;2022-07-05T01:12:14;13.60;99.90
16417;DHT22;8317;52.186;5.688;2022-07-05T01:14:42;13.50;99.90
16417;DHT22;8317;52.186;5.688;2022-07-05T01:17:10;13.30;99.90
16417;DHT22;8317;52.186;5.688;2022-07-05T01:19:37;13.30;99.90
16417;DHT22;8317;52.186;5.688;2022-07-05T01:22:11;13.20;99.90
16417;DHT22;8317;52.186;5.688;2022-07-05T01:24:40;13.10;99.90
16417;DHT22;8317;52.186;5.688;2022-07-05T01:27:08;13.10;99.90
16417;DHT22;8317;52.186;5.688;2022-07-05T01:29:35;13.20;99.90
16417;DHT22;8317;52.186;5.688;2022-07-05T01:32:02;13.00;99.90
16417;DHT22;8317;52.186;5.688;2022-07-05T01:34:29;13.00;99.90
16417;DHT22;8317;52.186;5.688;2022-07-05T01:36:56;12.90;99.90
16417;DHT22;8317;52.186;5.688;2022-07-05T01:39:23;13.10;99.90
16417;DHT22;8317;52.186;5.688;2022-07-05T01:41:51;13.00;99.90
16417;DHT22;8317;52.186;5.688;2022-07-05T01:44:18;13.00;99.90
16417;DHT22;8317;52.186;5.688;2022-07-05T01:46:45;12.90;99.90
16417;DHT22;8317;52.186;5.688;2022-07-05T01:49:16;12.90;99.90
16417;DHT22;8317;52.186;5.688;2022-07-05T01:51:48;13.10;99.90
16417;DHT22;8317;52.186;5.688;2022-07-05T01:54:15;12.80;99.90
16417;DHT22;8317;52.186;5.688;2022-07-05T01:56:42;12.90;99.90
16417;DHT22;8317;52.186;5.688;2022-07-05T01:59:11;12.90;99.90
16417;DHT22;8317;52.186;5.688;2022-07-05T02:01:39;12.70;99.90
16417;DHT22;8317;52.186;5.688;2022-07-05T02:04:08;12.80;99.90
16417;DHT22;8317;52.186;5.688;2022-07-05T02:06:35;12.70;99.90
16417;DHT22;8317;52.186;5.688;2022-07-05T02:09:04;12.60;99.90
16417;DHT22;8317;52.186;5.688;2022-07-05T02:11:31;12.70;99.90
16417;DHT22;8317;52.186;5.688;2022-07-05T02:13:58;12.80;99.90
16417;DHT22;8317;52.186;5.688;2022-07-05T02:16:27;12.50;99.90
16417;DHT22;8317;52.186;5.688;2022-07-05T02:18:54;12.50;99.90
16417;DHT22;8317;52.186;5.688;2022-07-05T02:21:21;12.50;99.90
16417;DHT22;8317;52.186;5.688;2022-07-05T02:23:48;12.60;99.90
16417;DHT22;8317;52.186;5.688;2022-07-05T02:26:15;12.60;99.90
16417;DHT22;8317;52.186;5.688;2022-07-05T02:28:42;12.50;99.90
16417;DHT22;8317;52.186;5.688;2022-07-05T02:31:09;12.60;99.90
16417;DHT22;8317;52.186;5.688;2022-07-05T02:33:37;12.60;99.90
16417;DHT22;8317;52.186;5.688;2022-07-05T02:36:08;12.60;99.90
16417;DHT22;8317;52.186;5.688;2022-07-05T02:38:36;12.90;99.90
16417;DHT22;8317;52.186;5.688;2022-07-05T02:41:04;12.70;99.90
16417;DHT22;8317;52.186;5.688;2022-07-05T02:43:32;12.90;99.90
16417;DHT22;8317;52.186;5.688;2022-07-05T02:45:59;12.80;99.90
16417;DHT22;8317;52.186;5.688;2022-07-05T02:48:27;13.10;99.90
16417;DHT22;8317;52.186;5.688;2022-07-05T02:50:55;12.60;99.90
16417;DHT22;8317;52.186;5.688;2022-07-05T02:53:22;12.60;99.90
16417;DHT22;8317;52.186;5.688;2022-07-05T02:55:49;12.50;99.90
16417;DHT22;8317;52.186;5.688;2022-07-05T02:58:16;12.50;99.90
16417;DHT22;8317;52.186;5.688;2022-07-05T03:00:43;12.60;99.90
16417;DHT22;8317;52.186;5.688;2022-07-05T03:03:10;12.70;99.90
16417;DHT22;8317;52.186;5.688;2022-07-05T03:05:37;12.60;99.90
16417;DHT22;8317;52.186;5.688;2022-07-05T03:08:06;12.80;99.90
16417;DHT22;8317;52.186;5.688;2022-07-05T03:10:33;12.70;99.90
16417;DHT22;8317;52.186;5.688;2022-07-05T03:13:01;12.90;99.90
16417;DHT22;8317;52.186;5.688;2022-07-05T03:15:28;12.70;99.90
16417;DHT22;8317;52.186;5.688;2022-07-05T03:17:55;12.60;99.90
16417;DHT22;8317;52.186;5.688;2022-07-05T03:20:22;12.60;99.90
16417;DHT22;8317;52.186;5.688;2022-07-05T03:22:49;12.70;99.90
16417;DHT22;8317;52.186;5.688;2022-07-05T03:25:17;12.70;99.90
16417;DHT22;8317;52.186;5.688;2022-07-05T03:27:44;12.80;99.90
16417;DHT22;8317;52.186;5.688;2022-07-05T03:30:12;12.70;99.90
16417;DHT22;8317;52.186;5.688;2022-07-05T03:32:39;12.60;99.90
16417;DHT22;8317;52.186;5.688;2022-07-05T03:35:06;12.80;99.90
16417;DHT22;8317;52.186;5.688;2022-07-05T03:37:33;12.70;99.90
16417;DHT22;8317;52.186;5.688;2022-07-05T03:40:00;12.70;99.90
16417;DHT22;8317;52.186;5.688;2022-07-05T03:42:28;12.80;99.90
16417;DHT22;8317;52.186;5.688;2022-07-05T03:44:55;12.90;99.90
16417;DHT22;8317;52.186;5.688;2022-07-05T03:47:22;12.80;99.90
16417;DHT22;8317;52.186;5.688;2022-07-05T03:49:49;12.80;99.90
16417;DHT22;8317;52.186;5.688;2022-07-05T03:52:16;12.90;99.90
16417;DHT22;8317;52.186;5.688;2022-07-05T03:54:43;12.80;99.90
16417;DHT22;8317;52.186;5.688;2022-07-05T03:57:10;13.00;99.90
16417;DHT22;8317;52.186;5.688;2022-07-05T03:59:39;13.10;99.90
16417;DHT22;8317;52.186;5.688;2022-07-05T04:02:06;13.00;99.90
16417;DHT22;8317;52.186;5.688;2022-07-05T04:04:33;13.00;99.90
16417;DHT22;8317;52.186;5.688;2022-07-05T04:07:00;13.00;99.90
16417;DHT22;8317;52.186;5.688;2022-07-05T04:09:27;13.10;99.90
16417;DHT22;8317;52.186;5.688;2022-07-05T04:11:54;13.00;99.90
16417;DHT22;8317;52.186;5.688;2022-07-05T04:14:21;13.00;99.90
16417;DHT22;8317;52.186;5.688;2022-07-05T04:16:49;13.00;99.90
16417;DHT22;8317;52.186;5.688;2022-07-05T04:19:16;13.00;99.90
16417;DHT22;8317;52.186;5.688;2022-07-05T04:21:43;13.20;99.90
16417;DHT22;8317;52.186;5.688;2022-07-05T04:24:10;13.40;99.90
16417;DHT22;8317;52.186;5.688;2022-07-05T04:26:37;13.30;99.90
16417;DHT22;8317;52.186;5.688;2022-07-05T04:29:04;13.30;99.90
16417;DHT22;8317;52.186;5.688;2022-07-05T04:31:31;13.30;99.90
16417;DHT22;8317;52.186;5.688;2022-07-05T04:33:59;13.40;99.90
16417;DHT22;8317;52.186;5.688;2022-07-05T04:36:26;13.30;99.90
16417;DHT22;8317;52.186;5.688;2022-07-05T04:38:53;13.50;99.90
16417;DHT22;8317;52.186;5.688;2022-07-05T04:41:20;13.30;99.90
16417;DHT22;8317;52.186;5.688;2022-07-05T04:43:47;13.40;99.90
16417;DHT22;8317;52.186;5.688;2022-07-05T04:46:14;13.70;99.90
16417;DHT22;8317;52.186;5.688;2022-07-05T04:48:41;13.30;99.90
16417;DHT22;8317;52.186;5.688;2022-07-05T04:51:09;13.20;99.90
16417;DHT22;8317;52.186;5.688;2022-07-05T04:53:36;13.10;99.90
16417;DHT22;8317;52.186;5.688;2022-07-05T04:56:03;13.40;99.90
16417;DHT22;8317;52.186;5.688;2022-07-05T04:58:30;13.30;99.90
16417;DHT22;8317;52.186;5.688;2022-07-05T05:00:57;13.20;99.90
16417;DHT22;8317;52.186;5.688;2022-07-05T05:03:24;13.40;99.90
16417;DHT22;8317;52.186;5.688;2022-07-05T05:05:51;13.50;99.90
16417;DHT22;8317;52.186;5.688;2022-07-05T05:08:19;13.40;99.90
16417;DHT22;8317;52.186;5.688;2022-07-05T05:10:46;13.60;99.90
16417;DHT22;8317;52.186;5.688;2022-07-05T05:13:13;13.60;99.90
16417;DHT22;8317;52.186;5.688;2022-07-05T05:15:40;13.70;99.90
16417;DHT22;8317;52.186;5.688;2022-07-05T05:18:07;13.70;99.90
16417;DHT22;8317;52.186;5.688;2022-07-05T05:20:33;13.60;99.90
16417;DHT22;8317;52.186;5.688;2022-07-05T05:23:00;13.80;99.90
16417;DHT22;8317;52.186;5.688;2022-07-05T05:25:28;13.80;99.90
16417;DHT22;8317;52.186;5.688;2022-07-05T05:27:56;13.80;99.90
16417;DHT22;8317;52.186;5.688;2022-07-05T05:30:23;14.00;99.90
16417;DHT22;8317;52.186;5.688;2022-07-05T05:32:50;14.00;99.90
16417;DHT22;8317;52.186;5.688;2022-07-05T05:35:17;14.20;99.90
16417;DHT22;8317;52.186;5.688;2022-07-05T05:37:50;14.60;99.90
16417;DHT22;8317;52.186;5.688;2022-07-05T05:40:17;14.50;99.90
16417;DHT22;8317;52.186;5.688;2022-07-05T05:42:46;14.50;99.90
16417;DHT22;8317;52.186;5.688;2022-07-05T05:45:14;14.50;99.90
16417;DHT22;8317;52.186;5.688;2022-07-05T05:47:49;14.60;99.90
16417;DHT22;8317;52.186;5.688;2022-07-05T05:50:20;14.60;99.90
16417;DHT22;8317;52.186;5.688;2022-07-05T05:52:47;14.90;99.90
16417;DHT22;8317;52.186;5.688;2022-07-05T05:55:14;15.20;99.90
16417;DHT22;8317;52.186;5.688;2022-07-05T05:57:41;15.40;99.90
16417;DHT22;8317;52.186;5.688;2022-07-05T06:00:10;15.50;99.90
16417;DHT22;8317;52.186;5.688;2022-07-05T06:02:37;15.90;99.90
16417;DHT22;8317;52.186;5.688;2022-07-05T06:05:04;16.30;99.90
16417;DHT22;8317;52.186;5.688;2022-07-05T06:07:31;16.50;99.90
16417;DHT22;8317;52.186;5.688;2022-07-05T06:09:58;16.70;99.90
16417;DHT22;8317;52.186;5.688;2022-07-05T06:12:25;16.90;99.90
16417;DHT22;8317;52.186;5.688;2022-07-05T06:14:51;17.20;99.90
16417;DHT22;8317;52.186;5.688;2022-07-05T06:17:20;18.00;99.90
16417;DHT22;8317;52.186;5.688;2022-07-05T06:19:46;18.00;99.90
16417;DHT22;8317;52.186;5.688;2022-07-05T06:22:13;17.70;99.90
16417;DHT22;8317;52.186;5.688;2022-07-05T06:24:40;17.50;99.90
16417;DHT22;8317;52.186;5.688;2022-07-05T06:27:07;17.20;99.90
16417;DHT22;8317;52.186;5.688;2022-07-05T06:29:34;17.40;99.90
16417;DHT22;8317;52.186;5.688;2022-07-05T06:32:01;17.60;99.90
16417;DHT22;8317;52.186;5.688;2022-07-05T06:34:30;18.00;99.90
16417;DHT22;8317;52.186;5.688;2022-07-05T06:36:57;18.40;99.90
16417;DHT22;8317;52.186;5.688;2022-07-05T06:39:24;18.50;99.90
16417;DHT22;8317;52.186;5.688;2022-07-05T06:41:50;18.70;99.90
16417;DHT22;8317;52.186;5.688;2022-07-05T06:44:17;19.00;99.90
16417;DHT22;8317;52.186;5.688;2022-07-05T06:46:44;18.80;99.90
16417;DHT22;8317;52.186;5.688;2022-07-05T06:49:11;19.20;99.90
16417;DHT22;8317;52.186;5.688;2022-07-05T06:51:39;19.50;99.90
16417;DHT22;8317;52.186;5.688;2022-07-05T06:54:06;19.50;99.90
16417;DHT22;8317;52.186;5.688;2022-07-05T06:56:33;19.50;99.90
16417;DHT22;8317;52.186;5.688;2022-07-05T06:59:00;19.70;99.90
16417;DHT22;8317;52.186;5.688;2022-07-05T07:01:27;20.00;99.90
16417;DHT22;8317;52.186;5.688;2022-07-05T07:03:53;20.20;99.90
16417;DHT22;8317;52.186;5.688;2022-07-05T07:06:21;20.10;99.90
16417;DHT22;8317;52.186;5.688;2022-07-05T07:08:49;20.30;99.90
16417;DHT22;8317;52.186;5.688;2022-07-05T07:11:34;20.40;99.90
16417;DHT22;8317;52.186;5.688;2022-07-05T07:14:01;20.70;99.90
16417;DHT22;8317;52.186;5.688;2022-07-05T07:16:28;20.50;99.90
16417;DHT22;8317;52.186;5.688;2022-07-05T07:18:56;20.40;99.90
16417;DHT22;8317;52.186;5.688;2022-07-05T07:21:23;20.10;99.90
16417;DHT22;8317;52.186;5.688;2022-07-05T07:23:51;20.10;99.90
16417;DHT22;8317;52.186;5.688;2022-07-05T07:26:18;20.10;99.90
16417;DHT22;8317;52.186;5.688;2022-07-05T07:28:45;20.00;99.90
16417;DHT22;8317;52.186;5.688;2022-07-05T07:31:11;20.00;99.90
16417;DHT22;8317;52.186;5.688;2022-07-05T07:33:38;19.80;99.90
16417;DHT22;8317;52.186;5.688;2022-07-05T07:36:05;19.60;99.90
16417;DHT22;8317;52.186;5.688;2022-07-05T07:38:32;19.70;99.90
16417;DHT22;8317;52.186;5.688;2022-07-05T07:41:00;19.60;99.90
16417;DHT22;8317;52.186;5.688;2022-07-05T07:43:27;19.70;99.90
16417;DHT22;8317;52.186;5.688;2022-07-05T07:45:54;19.60;99.90
16417;DHT22;8317;52.186;5.688;2022-07-05T07:48:22;19.70;99.90
16417;DHT22;8317;52.186;5.688;2022-07-05T07:50:49;19.70;99.90
16417;DHT22;8317;52.186;5.688;2022-07-05T07:53:16;19.90;99.90
16417;DHT22;8317;52.186;5.688;2022-07-05T07:55:43;20.60;99.90
16417;DHT22;8317;52.186;5.688;2022-07-05T07:58:11;20.90;99.90
16417;DHT22;8317;52.186;5.688;2022-07-05T08:00:38;21.00;99.90
16417;DHT22;8317;52.186;5.688;2022-07-05T08:03:05;20.70;99.90
16417;DHT22;8317;52.186;5.688;2022-07-05T08:05:32;20.80;99.90
16417;DHT22;8317;52.186;5.688;2022-07-05T08:07:59;20.70;99.90
16417;DHT22;8317;52.186;5.688;2022-07-05T08:10:26;20.70;99.90
16417;DHT22;8317;52.186;5.688;2022-07-05T08:12:53;20.70;99.90
16417;DHT22;8317;52.186;5.688;2022-07-05T08:15:21;20.80;99.90
16417;DHT22;8317;52.186;5.688;2022-07-05T08:17:48;20.80;99.90
16417;DHT22;8317;52.186;5.688;2022-07-05T08:20:33;20.70;99.90
16417;DHT22;8317;52.186;5.688;2022-07-05T08:23:17;20.70;99.90
16417;DHT22;8317;52.186;5.688;2022-07-05T08:25:44;20.90;99.90
16417;DHT22;8317;52.186;5.688;2022-07-05T08:28:10;20.90;99.90
16417;DHT22;8317;52.186;5.688;2022-07-05T08:30:39;21.00;99.90
16417;DHT22;8317;52.186;5.688;2022-07-05T08:33:06;21.10;99.90
16417;DHT22;8317;52.186;5.688;2022-07-05T08:35:33;21.10;99.90
16417;DHT22;8317;52.186;5.688;2022-07-05T08:38:00;21.40;99.90
16417;DHT22;8317;52.186;5.688;2022-07-05T08:40:29;21.50;99.90
16417;DHT22;8317;52.186;5.688;2022-07-05T08:42:58;21.40;99.90
16417;DHT22;8317;52.186;5.688;2022-07-05T08:45:28;21.30;99.90
16417;DHT22;8317;52.186;5.688;2022-07-05T08:48:00;21.10;99.90
16417;DHT22;8317;52.186;5.688;2022-07-05T08:50:27;21.30;99.90
16417;DHT22;8317;52.186;5.688;2022-07-05T08:52:54;21.80;99.90
16417;DHT22;8317;52.186;5.688;2022-07-05T08:55:22;21.60;99.90
16417;DHT22;8317;52.186;5.688;2022-07-05T08:57:49;21.40;99.90
16417;DHT22;8317;52.186;5.688;2022-07-05T09:00:16;21.00;99.90
16417;DHT22;8317;52.186;5.688;2022-07-05T09:02:43;20.60;99.90
16417;DHT22;8317;52.186;5.688;2022-07-05T09:05:12;20.40;99.90
16417;DHT22;8317;52.186;5.688;2022-07-05T09:07:48;20.30;99.90
16417;DHT22;8317;52.186;5.688;2022-07-05T09:10:17;20.10;99.90
16417;DHT22;8317;52.186;5.688;2022-07-05T09:12:45;19.80;99.90
16417;DHT22;8317;52.186;5.688;2022-07-05T09:15:12;19.90;99.90
16417;DHT22;8317;52.186;5.688;2022-07-05T09:17:42;19.90;99.90
16417;DHT22;8317;52.186;5.688;2022-07-05T09:20:12;20.20;99.90
16417;DHT22;8317;52.186;5.688;2022-07-05T09:22:43;20.20;99.90
16417;DHT22;8317;52.186;5.688;2022-07-05T09:25:18;20.30;99.90
16417;DHT22;8317;52.186;5.688;2022-07-05T09:27:51;20.70;99.90
16417;DHT22;8317;52.186;5.688;2022-07-05T09:30:27;21.20;99.90
16417;DHT22;8317;52.186;5.688;2022-07-05T09:33:00;22.00;99.90
16417;DHT22;8317;52.186;5.688;2022-07-05T09:35:29;22.20;99.90
16417;DHT22;8317;52.186;5.688;2022-07-05T09:37:56;22.80;99.90
16417;DHT22;8317;52.186;5.688;2022-07-05T09:40:23;22.80;99.90
16417;DHT22;8317;52.186;5.688;2022-07-05T09:42:49;22.70;99.90
16417;DHT22;8317;52.186;5.688;2022-07-05T09:45:21;22.80;99.90
16417;DHT22;8317;52.186;5.688;2022-07-05T09:47:49;22.30;99.90
16417;DHT22;8317;52.186;5.688;2022-07-05T09:50:34;22.40;99.90
16417;DHT22;8317;52.186;5.688;2022-07-05T09:53:00;22.00;99.90
16417;DHT22;8317;52.186;5.688;2022-07-05T09:55:27;21.50;99.90
16417;DHT22;8317;52.186;5.688;2022-07-05T09:57:54;21.40;99.90
16417;DHT22;8317;52.186;5.688;2022-07-05T10:00:22;21.30;99.90
16417;DHT22;8317;52.186;5.688;2022-07-05T10:02:50;21.20;99.90
16417;DHT22;8317;52.186;5.688;2022-07-05T10:05:17;21.00;99.90
16417;DHT22;8317;52.186;5.688;2022-07-05T10:07:47;20.90;99.90
16417;DHT22;8317;52.186;5.688;2022-07-05T10:10:16;20.80;99.90
16417;DHT22;8317;52.186;5.688;2022-07-05T10:12:44;20.60;99.90
16417;DHT22;8317;52.186;5.688;2022-07-05T10:15:13;20.90;99.90
16417;DHT22;8317;52.186;5.688;2022-07-05T10:17:41;21.50;99.90
16417;DHT22;8317;52.186;5.688;2022-07-05T10:20:15;21.90;99.90
16417;DHT22;8317;52.186;5.688;2022-07-05T10:22:43;22.40;99.90
16417;DHT22;8317;52.186;5.688;2022-07-05T10:25:12;22.90;99.90
16417;DHT22;8317;52.186;5.688;2022-07-05T10:27:39;23.30;99.90
16417;DHT22;8317;52.186;5.688;2022-07-05T10:30:08;23.10;99.90
16417;DHT22;8317;52.186;5.688;2022-07-05T10:32:38;22.70;99.90
16417;DHT22;8317;52.186;5.688;2022-07-05T10:35:07;22.20;99.90
16417;DHT22;8317;52.186;5.688;2022-07-05T10:37:35;22.00;99.90
16417;DHT22;8317;52.186;5.688;2022-07-05T10:40:04;21.90;99.90
16417;DHT22;8317;52.186;5.688;2022-07-05T10:42:37;22.10;99.90
16417;DHT22;8317;52.186;5.688;2022-07-05T10:45:25;22.70;99.90
16417;DHT22;8317;52.186;5.688;2022-07-05T10:48:14;23.10;99.90
16417;DHT22;8317;52.186;5.688;2022-07-05T10:50:46;23.30;99.90
16417;DHT22;8317;52.186;5.688;2022-07-05T10:53:16;23.20;99.90
16417;DHT22;8317;52.186;5.688;2022-07-05T10:55:58;22.70;99.90
16417;DHT22;8317;52.186;5.688;2022-07-05T10:58:30;22.10;99.90
16417;DHT22;8317;52.186;5.688;2022-07-05T11:04:26;22.50;99.90
16417;DHT22;8317;52.186;5.688;2022-07-05T11:06:55;22.70;99.90
16417;DHT22;8317;52.186;5.688;2022-07-05T11:09:22;23.10;99.90
16417;DHT22;8317;52.186;5.688;2022-07-05T11:12:22;23.30;99.90
16417;DHT22;8317;52.186;5.688;2022-07-05T11:15:07;23.70;99.90
16417;DHT22;8317;52.186;5.688;2022-07-05T11:17:36;23.90;99.90
16417;DHT22;8317;52.186;5.688;2022-07-05T11:20:30;23.60;99.90
16417;DHT22;8317;52.186;5.688;2022-07-05T11:23:11;23.30;99.90
16417;DHT22;8317;52.186;5.688;2022-07-05T11:25:44;22.30;99.90
16417;DHT22;8317;52.186;5.688;2022-07-05T11:28:18;22.30;99.90
16417;DHT22;8317;52.186;5.688;2022-07-05T11:30:55;22.10;99.90
16417;DHT22;8317;52.186;5.688;2022-07-05T11:33:34;21.70;99.90
16417;DHT22;8317;52.186;5.688;2022-07-05T11:36:02;21.60;99.90
16417;DHT22;8317;52.186;5.688;2022-07-05T11:38:30;21.60;99.90
16417;DHT22;8317;52.186;5.688;2022-07-05T11:41:11;22.10;99.90
16417;DHT22;8317;52.186;5.688;2022-07-05T11:43:38;22.60;99.90
16417;DHT22;8317;52.186;5.688;2022-07-05T11:46:08;22.30;99.90
16417;DHT22;8317;52.186;5.688;2022-07-05T11:48:35;21.90;99.90
16417;DHT22;8317;52.186;5.688;2022-07-05T11:51:12;21.60;99.90
16417;DHT22;8317;52.186;5.688;2022-07-05T11:53:40;21.40;99.90
16417;DHT22;8317;52.186;5.688;2022-07-05T11:56:09;21.60;99.90
16417;DHT22;8317;52.186;5.688;2022-07-05T11:58:36;21.60;99.90
16417;DHT22;8317;52.186;5.688;2022-07-05T12:01:03;21.80;99.90
16417;DHT22;8317;52.186;5.688;2022-07-05T12:03:33;21.90;99.90
16417;DHT22;8317;52.186;5.688;2022-07-05T12:06:10;22.20;99.90
16417;DHT22;8317;52.186;5.688;2022-07-05T12:08:37;22.50;99.90
16417;DHT22;8317;52.186;5.688;2022-07-05T12:11:04;22.50;99.90
16417;DHT22;8317;52.186;5.688;2022-07-05T12:13:50;21.90;99.90
16417;DHT22;8317;52.186;5.688;2022-07-05T12:16:17;22.00;99.90
16417;DHT22;8317;52.186;5.688;2022-07-05T12:18:53;22.40;99.90
16417;DHT22;8317;52.186;5.688;2022-07-05T12:21:21;22.40;99.90
16417;DHT22;8317;52.186;5.688;2022-07-05T12:23:49;22.70;99.90
16417;DHT22;8317;52.186;5.688;2022-07-05T12:26:17;22.90;99.90
16417;DHT22;8317;52.186;5.688;2022-07-05T12:28:45;23.20;99.90
16417;DHT22;8317;52.186;5.688;2022-07-05T12:31:19;22.80;99.90
16417;DHT22;8317;52.186;5.688;2022-07-05T12:33:46;22.20;99.90
16417;DHT22;8317;52.186;5.688;2022-07-05T12:36:16;22.00;99.90
16417;DHT22;8317;52.186;5.688;2022-07-05T12:38:44;22.00;99.90
16417;DHT22;8317;52.186;5.688;2022-07-05T12:41:11;21.50;99.90
16417;DHT22;8317;52.186;5.688;2022-07-05T12:43:52;21.30;99.90
16417;DHT22;8317;52.186;5.688;2022-07-05T12:46:20;21.40;99.90
16417;DHT22;8317;52.186;5.688;2022-07-05T12:48:52;21.00;99.90
16417;DHT22;8317;52.186;5.688;2022-07-05T12:51:36;21.10;99.90
16417;DHT22;8317;52.186;5.688;2022-07-05T12:54:03;21.20;99.90
16417;DHT22;8317;52.186;5.688;2022-07-05T12:56:51;21.30;99.90
16417;DHT22;8317;52.186;5.688;2022-07-05T12:59:36;20.90;99.90
16417;DHT22;8317;52.186;5.688;2022-07-05T13:02:03;20.90;99.90
16417;DHT22;8317;52.186;5.688;2022-07-05T13:04:30;21.00;99.90
16417;DHT22;8317;52.186;5.688;2022-07-05T13:07:00;21.10;99.90
16417;DHT22;8317;52.186;5.688;2022-07-05T13:09:33;21.40;99.90
16417;DHT22;8317;52.186;5.688;2022-07-05T13:12:08;21.40;99.90
16417;DHT22;8317;52.186;5.688;2022-07-05T13:14:37;21.10;99.90
16417;DHT22;8317;52.186;5.688;2022-07-05T13:17:04;21.60;99.90
16417;DHT22;8317;52.186;5.688;2022-07-05T13:19:31;21.60;99.90
16417;DHT22;8317;52.186;5.688;2022-07-05T13:22:00;21.20;99.90
16417;DHT22;8317;52.186;5.688;2022-07-05T13:24:27;21.20;99.90
16417;DHT22;8317;52.186;5.688;2022-07-05T13:26:54;21.30;99.90
16417;DHT22;8317;52.186;5.688;2022-07-05T13:29:21;21.20;99.90
16417;DHT22;8317;52.186;5.688;2022-07-05T13:31:48;21.00;99.90
16417;DHT22;8317;52.186;5.688;2022-07-05T13:34:15;21.10;99.90
16417;DHT22;8317;52.186;5.688;2022-07-05T13:36:41;21.40;99.90
16417;DHT22;8317;52.186;5.688;2022-07-05T13:39:10;21.70;99.90
16417;DHT22;8317;52.186;5.688;2022-07-05T13:41:37;21.70;99.90
16417;DHT22;8317;52.186;5.688;2022-07-05T13:44:04;21.50;99.90
16417;DHT22;8317;52.186;5.688;2022-07-05T13:46:31;21.30;99.90
16417;DHT22;8317;52.186;5.688;2022-07-05T13:48:57;20.90;99.90
16417;DHT22;8317;52.186;5.688;2022-07-05T13:51:24;21.00;99.90
16417;DHT22;8317;52.186;5.688;2022-07-05T13:53:51;21.00;99.90
16417;DHT22;8317;52.186;5.688;2022-07-05T13:56:19;21.10;99.90
16417;DHT22;8317;52.186;5.688;2022-07-05T13:58:47;21.20;99.90
16417;DHT22;8317;52.186;5.688;2022-07-05T14:01:14;21.20;99.90
16417;DHT22;8317;52.186;5.688;2022-07-05T14:03:42;21.50;99.90
16417;DHT22;8317;52.186;5.688;2022-07-05T14:06:09;21.40;99.90
16417;DHT22;8317;52.186;5.688;2022-07-05T14:08:36;21.10;99.90
16417;DHT22;8317;52.186;5.688;2022-07-05T14:11:03;20.70;99.90
16417;DHT22;8317;52.186;5.688;2022-07-05T14:13:31;20.60;99.90
16417;DHT22;8317;52.186;5.688;2022-07-05T14:15:59;20.70;99.90
16417;DHT22;8317;52.186;5.688;2022-07-05T14:18:26;21.10;99.90
16417;DHT22;8317;52.186;5.688;2022-07-05T14:20:52;21.50;99.90
16417;DHT22;8317;52.186;5.688;2022-07-05T14:23:19;21.70;99.90
16417;DHT22;8317;52.186;5.688;2022-07-05T14:25:46;21.60;99.90
16417;DHT22;8317;52.186;5.688;2022-07-05T14:28:13;21.60;99.90
16417;DHT22;8317;52.186;5.688;2022-07-05T14:30:43;21.70;99.90
16417;DHT22;8317;52.186;5.688;2022-07-05T14:33:12;21.50;99.90
16417;DHT22;8317;52.186;5.688;2022-07-05T14:35:40;21.50;99.90
16417;DHT22;8317;52.186;5.688;2022-07-05T14:38:07;21.20;99.90
16417;DHT22;8317;52.186;5.688;2022-07-05T14:40:34;21.10;99.90
16417;DHT22;8317;52.186;5.688;2022-07-05T14:43:02;21.10;99.90
16417;DHT22;8317;52.186;5.688;2022-07-05T14:45:29;21.10;99.90
16417;DHT22;8317;52.186;5.688;2022-07-05T14:47:57;21.10;99.90
16417;DHT22;8317;52.186;5.688;2022-07-05T14:50:24;21.40;99.90
16417;DHT22;8317;52.186;5.688;2022-07-05T14:52:51;21.60;99.90
16417;DHT22;8317;52.186;5.688;2022-07-05T14:55:18;21.80;99.90
16417;DHT22;8317;52.186;5.688;2022-07-05T14:57:45;21.70;99.90
16417;DHT22;8317;52.186;5.688;2022-07-05T15:00:14;22.00;99.90
16417;DHT22;8317;52.186;5.688;2022-07-05T15:02:41;21.90;99.90
16417;DHT22;8317;52.186;5.688;2022-07-05T15:05:10;21.90;99.90
16417;DHT22;8317;52.186;5.688;2022-07-05T15:07:38;21.90;99.90
16417;DHT22;8317;52.186;5.688;2022-07-05T15:10:06;22.00;99.90
16417;DHT22;8317;52.186;5.688;2022-07-05T15:12:34;21.90;99.90
16417;DHT22;8317;52.186;5.688;2022-07-05T15:15:01;21.50;99.90
16417;DHT22;8317;52.186;5.688;2022-07-05T15:17:28;21.40;99.90
16417;DHT22;8317;52.186;5.688;2022-07-05T15:19:54;21.20;99.90
16417;DHT22;8317;52.186;5.688;2022-07-05T15:22:23;21.20;99.90
16417;DHT22;8317;52.186;5.688;2022-07-05T15:24:52;21.10;99.90
16417;DHT22;8317;52.186;5.688;2022-07-05T15:27:19;21.10;99.90
16417;DHT22;8317;52.186;5.688;2022-07-05T15:29:46;21.00;99.90
16417;DHT22;8317;52.186;5.688;2022-07-05T15:32:13;21.00;99.90
16417;DHT22;8317;52.186;5.688;2022-07-05T15:34:40;21.00;99.90
16417;DHT22;8317;52.186;5.688;2022-07-05T15:37:07;20.90;99.90
16417;DHT22;8317;52.186;5.688;2022-07-05T15:39:35;20.60;99.90
16417;DHT22;8317;52.186;5.688;2022-07-05T15:42:03;20.40;99.90
16417;DHT22;8317;52.186;5.688;2022-07-05T15:44:30;20.50;99.90
16417;DHT22;8317;52.186;5.688;2022-07-05T15:46:57;20.50;99.90
16417;DHT22;8317;52.186;5.688;2022-07-05T15:49:30;20.30;99.90
16417;DHT22;8317;52.186;5.688;2022-07-05T15:51:58;20.30;99.90
16417;DHT22;8317;52.186;5.688;2022-07-05T15:54:25;20.30;99.90
16417;DHT22;8317;52.186;5.688;2022-07-05T15:56:54;20.10;99.90